sensor_id;sensor_type;location;lat;lon;timestamp;temperature;humidity
21171;DHT22;10743;52.160;20.910;2023-07-13T00:01:55;32.60;45.00
21171;DHT22;10743;52.160;20.910;2023-07-13T00:04:24;32.60;44.90
21171;DHT22;10743;52.160;20.910;2023-07-13T00:06:52;32.60;44.90
21171;DHT22;10743;52.160;20.910;2023-07-13T00:09:20;32.50;44.90
21171;DHT22;10743;52.160;20.910;2023-07-13T00:11:54;32.60;44.90
21171;DHT22;10743;52.160;20.910;2023-07-13T00:14:24;32.50;44.90
21171;DHT22;10743;52.160;20.910;2023-07-13T00:17:07;32.50;44.90
21171;DHT22;10743;52.160;20.910;2023-07-13T00:19:34;32.50;45.00
21171;DHT22;10743;52.160;20.910;2023-07-13T00:22:02;32.50;45.00
21171;DHT22;10743;52.160;20.910;2023-07-13T00:24:30;32.50;45.00
21171;DHT22;10743;52.160;20.910;2023-07-13T00:26:57;32.40;45.00
21171;DHT22;10743;52.160;20.910;2023-07-13T00:29:26;32.40;45.10
21171;DHT22;10743;52.160;20.910;2023-07-13T00:31:53;32.40;45.10
21171;DHT22;10743;52.160;20.910;2023-07-13T00:34:20;32.40;45.20
21171;DHT22;10743;52.160;20.910;2023-07-13T00:36:48;32.40;45.00
21171;DHT22;10743;52.160;20.910;2023-07-13T00:39:15;32.40;45.10
21171;DHT22;10743;52.160;20.910;2023-07-13T00:41:42;32.40;45.10
21171;DHT22;10743;52.160;20.910;2023-07-13T00:44:14;32.30;45.10
21171;DHT22;10743;52.160;20.910;2023-07-13T00:46:42;32.40;45.40
21171;DHT22;10743;52.160;20.910;2023-07-13T00:49:13;32.40;45.30
21171;DHT22;10743;52.160;20.910;2023-07-13T00:51:44;32.40;45.30
21171;DHT22;10743;52.160;20.910;2023-07-13T00:54:18;32.40;45.20
21171;DHT22;10743;52.160;20.910;2023-07-13T00:56:50;32.40;45.30
21171;DHT22;10743;52.160;20.910;2023-07-13T00:59:22;32.40;45.30
21171;DHT22;10743;52.160;20.910;2023-07-13T01:01:49;32.40;45.30
21171;DHT22;10743;52.160;20.910;2023-07-13T01:04:18;32.40;45.30
21171;DHT22;10743;52.160;20.910;2023-07-13T01:06:46;32.40;45.30
21171;DHT22;10743;52.160;20.910;2023-07-13T01:09:14;32.40;45.20
21171;DHT22;10743;52.160;20.910;2023-07-13T01:11:42;32.40;45.30
21171;DHT22;10743;52.160;20.910;2023-07-13T01:14:11;32.30;45.30
21171;DHT22;10743;52.160;20.910;2023-07-13T01:16:44;32.30;45.30
21171;DHT22;10743;52.160;20.910;2023-07-13T01:19:37;32.30;45.30
21171;DHT22;10743;52.160;20.910;2023-07-13T01:22:10;32.30;45.30
21171;DHT22;10743;52.160;20.910;2023-07-13T01:24:40;32.30;45.30
21171;DHT22;10743;52.160;20.910;2023-07-13T01:27:11;32.30;45.40
21171;DHT22;10743;52.160;20.910;2023-07-13T01:29:41;32.30;45.40
21171;DHT22;10743;52.160;20.910;2023-07-13T01:32:12;32.30;45.40
21171;DHT22;10743;52.160;20.910;2023-07-13T01:34:40;32.30;45.50
21171;DHT22;10743;52.160;20.910;2023-07-13T01:37:10;32.30;45.60
21171;DHT22;10743;52.160;20.910;2023-07-13T01:39:39;32.30;45.60
21171;DHT22;10743;52.160;20.910;2023-07-13T01:42:06;32.20;45.60
21171;DHT22;10743;52.160;20.910;2023-07-13T01:44:33;32.20;45.70
21171;DHT22;10743;52.160;20.910;2023-07-13T01:47:01;32.20;45.60
21171;DHT22;10743;52.160;20.910;2023-07-13T01:49:29;32.20;45.70
21171;DHT22;10743;52.160;20.910;2023-07-13T01:51:56;32.20;45.70
21171;DHT22;10743;52.160;20.910;2023-07-13T01:54:23;32.20;45.80
21171;DHT22;10743;52.160;20.910;2023-07-13T01:56:50;32.10;45.80
21171;DHT22;10743;52.160;20.910;2023-07-13T01:59:18;32.20;45.80
21171;DHT22;10743;52.160;20.910;2023-07-13T02:01:45;32.20;45.50
21171;DHT22;10743;52.160;20.910;2023-07-13T02:04:12;32.20;45.40
21171;DHT22;10743;52.160;20.910;2023-07-13T02:06:39;32.20;45.60
21171;DHT22;10743;52.160;20.910;2023-07-13T02:09:06;32.20;45.70
21171;DHT22;10743;52.160;20.910;2023-07-13T02:11:33;32.20;45.60
21171;DHT22;10743;52.160;20.910;2023-07-13T02:14:00;32.20;45.50
21171;DHT22;10743;52.160;20.910;2023-07-13T02:16:29;32.20;45.30
21171;DHT22;10743;52.160;20.910;2023-07-13T02:18:57;32.20;45.40
21171;DHT22;10743;52.160;20.910;2023-07-13T02:21:26;32.20;45.50
21171;DHT22;10743;52.160;20.910;2023-07-13T02:23:53;32.20;45.60
21171;DHT22;10743;52.160;20.910;2023-07-13T02:26:21;32.20;45.50
21171;DHT22;10743;52.160;20.910;2023-07-13T02:28:48;32.20;45.60
21171;DHT22;10743;52.160;20.910;2023-07-13T02:31:16;32.20;45.50
21171;DHT22;10743;52.160;20.910;2023-07-13T02:33:45;32.20;45.60
21171;DHT22;10743;52.160;20.910;2023-07-13T02:36:12;32.20;45.60
21171;DHT22;10743;52.160;20.910;2023-07-13T02:38:44;32.20;45.70
21171;DHT22;10743;52.160;20.910;2023-07-13T02:41:11;32.20;45.70
21171;DHT22;10743;52.160;20.910;2023-07-13T02:43:39;32.20;45.70
21171;DHT22;10743;52.160;20.910;2023-07-13T02:46:08;32.20;45.70
21171;DHT22;10743;52.160;20.910;2023-07-13T02:48:37;32.10;45.70
21171;DHT22;10743;52.160;20.910;2023-07-13T02:51:06;32.10;45.70
21171;DHT22;10743;52.160;20.910;2023-07-13T02:53:34;32.10;45.70
21171;DHT22;10743;52.160;20.910;2023-07-13T02:56:04;32.10;45.70
21171;DHT22;10743;52.160;20.910;2023-07-13T02:58:32;32.10;45.70
21171;DHT22;10743;52.160;20.910;2023-07-13T03:00:59;32.10;45.70
21171;DHT22;10743;52.160;20.910;2023-07-13T03:03:27;32.10;45.70
21171;DHT22;10743;52.160;20.910;2023-07-13T03:05:59;32.10;45.70
21171;DHT22;10743;52.160;20.910;2023-07-13T03:08:34;32.10;45.70
21171;DHT22;10743;52.160;20.910;2023-07-13T03:11:06;32.10;45.70
21171;DHT22;10743;52.160;20.910;2023-07-13T03:13:38;32.10;45.70
21171;DHT22;10743;52.160;20.910;2023-07-13T03:16:08;32.10;45.80
21171;DHT22;10743;52.160;20.910;2023-07-13T03:18:38;32.00;45.70
21171;DHT22;10743;52.160;20.910;2023-07-13T03:21:08;32.00;45.70
21171;DHT22;10743;52.160;20.910;2023-07-13T03:23:35;32.00;45.70
21171;DHT22;10743;52.160;20.910;2023-07-13T03:26:15;32.00;45.70
21171;DHT22;10743;52.160;20.910;2023-07-13T03:28:45;32.00;45.80
21171;DHT22;10743;52.160;20.910;2023-07-13T03:31:22;32.00;45.70
21171;DHT22;10743;52.160;20.910;2023-07-13T03:33:52;32.00;45.70
21171;DHT22;10743;52.160;20.910;2023-07-13T03:36:25;31.90;45.70
21171;DHT22;10743;52.160;20.910;2023-07-13T03:38:58;31.90;45.60
21171;DHT22;10743;52.160;20.910;2023-07-13T03:41:39;32.00;45.80
21171;DHT22;10743;52.160;20.910;2023-07-13T03:44:07;32.00;45.80
21171;DHT22;10743;52.160;20.910;2023-07-13T03:46:34;31.90;45.70
21171;DHT22;10743;52.160;20.910;2023-07-13T03:49:03;32.00;46.00
21171;DHT22;10743;52.160;20.910;2023-07-13T03:51:32;31.90;46.10
21171;DHT22;10743;52.160;20.910;2023-07-13T03:54:00;32.00;46.30
21171;DHT22;10743;52.160;20.910;2023-07-13T03:56:27;32.00;46.40
21171;DHT22;10743;52.160;20.910;2023-07-13T03:58:55;32.00;46.60
21171;DHT22;10743;52.160;20.910;2023-07-13T04:01:24;32.00;46.60
21171;DHT22;10743;52.160;20.910;2023-07-13T04:03:54;32.00;46.70
21171;DHT22;10743;52.160;20.910;2023-07-13T04:06:28;32.10;46.90
21171;DHT22;10743;52.160;20.910;2023-07-13T04:08:59;32.10;47.10
21171;DHT22;10743;52.160;20.910;2023-07-13T04:11:31;32.10;47.10
21171;DHT22;10743;52.160;20.910;2023-07-13T04:13:59;32.10;47.20
21171;DHT22;10743;52.160;20.910;2023-07-13T04:16:27;32.20;47.20
21171;DHT22;10743;52.160;20.910;2023-07-13T04:19:07;32.20;47.30
21171;DHT22;10743;52.160;20.910;2023-07-13T04:21:35;32.30;47.00
21171;DHT22;10743;52.160;20.910;2023-07-13T04:24:22;32.30;47.30
21171;DHT22;10743;52.160;20.910;2023-07-13T04:26:49;32.30;47.50
21171;DHT22;10743;52.160;20.910;2023-07-13T04:29:16;32.40;47.60
21171;DHT22;10743;52.160;20.910;2023-07-13T04:31:43;32.50;47.60
21171;DHT22;10743;52.160;20.910;2023-07-13T04:34:11;32.50;47.90
21171;DHT22;10743;52.160;20.910;2023-07-13T04:36:38;32.60;47.70
21171;DHT22;10743;52.160;20.910;2023-07-13T04:39:05;32.60;47.80
21171;DHT22;10743;52.160;20.910;2023-07-13T04:41:33;32.70;47.60
21171;DHT22;10743;52.160;20.910;2023-07-13T04:44:00;32.70;47.70
21171;DHT22;10743;52.160;20.910;2023-07-13T04:46:27;32.70;47.90
21171;DHT22;10743;52.160;20.910;2023-07-13T04:48:54;32.80;48.00
21171;DHT22;10743;52.160;20.910;2023-07-13T04:51:22;32.90;48.10
21171;DHT22;10743;52.160;20.910;2023-07-13T04:53:49;32.90;47.90
21171;DHT22;10743;52.160;20.910;2023-07-13T04:56:23;32.90;47.80
21171;DHT22;10743;52.160;20.910;2023-07-13T04:58:51;33.00;47.80
21171;DHT22;10743;52.160;20.910;2023-07-13T05:01:18;33.00;47.80
21171;DHT22;10743;52.160;20.910;2023-07-13T05:03:45;33.10;47.80
21171;DHT22;10743;52.160;20.910;2023-07-13T05:06:12;33.10;47.90
21171;DHT22;10743;52.160;20.910;2023-07-13T05:08:40;33.20;47.80
21171;DHT22;10743;52.160;20.910;2023-07-13T05:11:07;33.20;47.60
21171;DHT22;10743;52.160;20.910;2023-07-13T05:13:35;33.20;47.60
21171;DHT22;10743;52.160;20.910;2023-07-13T05:16:04;33.20;47.70
21171;DHT22;10743;52.160;20.910;2023-07-13T05:18:35;33.20;47.50
21171;DHT22;10743;52.160;20.910;2023-07-13T05:21:10;33.30;48.40
21171;DHT22;10743;52.160;20.910;2023-07-13T05:23:39;33.30;47.80
21171;DHT22;10743;52.160;20.910;2023-07-13T05:26:08;33.30;47.60
21171;DHT22;10743;52.160;20.910;2023-07-13T05:28:37;33.40;47.60
21171;DHT22;10743;52.160;20.910;2023-07-13T05:31:06;33.40;47.60
21171;DHT22;10743;52.160;20.910;2023-07-13T05:33:34;33.40;47.70
21171;DHT22;10743;52.160;20.910;2023-07-13T05:36:01;33.50;47.70
21171;DHT22;10743;52.160;20.910;2023-07-13T05:38:29;33.50;47.70
21171;DHT22;10743;52.160;20.910;2023-07-13T05:40:57;33.50;47.70
21171;DHT22;10743;52.160;20.910;2023-07-13T05:43:24;33.60;47.70
21171;DHT22;10743;52.160;20.910;2023-07-13T05:45:56;33.60;47.70
21171;DHT22;10743;52.160;20.910;2023-07-13T05:48:23;33.60;47.80
21171;DHT22;10743;52.160;20.910;2023-07-13T05:50:51;33.60;47.50
21171;DHT22;10743;52.160;20.910;2023-07-13T05:53:18;33.70;47.70
21171;DHT22;10743;52.160;20.910;2023-07-13T05:55:47;33.80;47.80
21171;DHT22;10743;52.160;20.910;2023-07-13T05:58:14;33.80;47.70
21171;DHT22;10743;52.160;20.910;2023-07-13T06:00:43;33.80;47.80
21171;DHT22;10743;52.160;20.910;2023-07-13T06:03:10;33.80;47.70
21171;DHT22;10743;52.160;20.910;2023-07-13T06:05:38;33.90;47.50
21171;DHT22;10743;52.160;20.910;2023-07-13T06:08:06;33.90;47.70
21171;DHT22;10743;52.160;20.910;2023-07-13T06:10:35;34.00;47.60
21171;DHT22;10743;52.160;20.910;2023-07-13T06:13:02;34.10;47.90
21171;DHT22;10743;52.160;20.910;2023-07-13T06:15:30;34.10;48.00
21171;DHT22;10743;52.160;20.910;2023-07-13T06:17:57;34.20;47.80
21171;DHT22;10743;52.160;20.910;2023-07-13T06:20:24;34.20;47.60
21171;DHT22;10743;52.160;20.910;2023-07-13T06:22:51;34.30;47.60
21171;DHT22;10743;52.160;20.910;2023-07-13T06:25:18;34.30;47.50
21171;DHT22;10743;52.160;20.910;2023-07-13T06:27:46;34.30;47.40
21171;DHT22;10743;52.160;20.910;2023-07-13T06:30:13;34.40;47.10
21171;DHT22;10743;52.160;20.910;2023-07-13T06:32:40;34.40;46.80
21171;DHT22;10743;52.160;20.910;2023-07-13T06:35:07;34.50;46.40
21171;DHT22;10743;52.160;20.910;2023-07-13T06:37:35;34.50;46.60
21171;DHT22;10743;52.160;20.910;2023-07-13T06:40:02;34.60;46.50
21171;DHT22;10743;52.160;20.910;2023-07-13T06:42:30;34.60;46.10
21171;DHT22;10743;52.160;20.910;2023-07-13T06:44:57;34.70;45.70
21171;DHT22;10743;52.160;20.910;2023-07-13T06:47:24;34.70;45.10
21171;DHT22;10743;52.160;20.910;2023-07-13T06:49:51;34.80;44.90
21171;DHT22;10743;52.160;20.910;2023-07-13T06:52:18;34.80;44.20
21171;DHT22;10743;52.160;20.910;2023-07-13T06:54:45;34.90;43.70
21171;DHT22;10743;52.160;20.910;2023-07-13T06:57:12;34.90;43.80
21171;DHT22;10743;52.160;20.910;2023-07-13T06:59:40;35.00;43.60
21171;DHT22;10743;52.160;20.910;2023-07-13T07:02:09;35.00;43.40
21171;DHT22;10743;52.160;20.910;2023-07-13T07:04:37;35.10;43.90
21171;DHT22;10743;52.160;20.910;2023-07-13T07:07:05;35.10;43.40
21171;DHT22;10743;52.160;20.910;2023-07-13T07:09:32;35.20;42.90
21171;DHT22;10743;52.160;20.910;2023-07-13T07:11:59;35.20;43.00
21171;DHT22;10743;52.160;20.910;2023-07-13T07:14:30;35.30;41.70
21171;DHT22;10743;52.160;20.910;2023-07-13T07:16:57;35.40;41.80
21171;DHT22;10743;52.160;20.910;2023-07-13T07:19:27;35.40;41.30
21171;DHT22;10743;52.160;20.910;2023-07-13T07:21:56;35.50;41.50
21171;DHT22;10743;52.160;20.910;2023-07-13T07:24:23;35.50;41.60
21171;DHT22;10743;52.160;20.910;2023-07-13T07:26:50;35.60;40.00
21171;DHT22;10743;52.160;20.910;2023-07-13T07:29:20;35.60;40.00
21171;DHT22;10743;52.160;20.910;2023-07-13T07:31:50;35.70;39.50
21171;DHT22;10743;52.160;20.910;2023-07-13T07:34:32;35.70;39.60
21171;DHT22;10743;52.160;20.910;2023-07-13T07:37:01;35.80;40.00
21171;DHT22;10743;52.160;20.910;2023-07-13T07:39:31;35.80;40.20
21171;DHT22;10743;52.160;20.910;2023-07-13T07:41:58;35.90;39.60
21171;DHT22;10743;52.160;20.910;2023-07-13T07:44:25;35.90;39.60
21171;DHT22;10743;52.160;20.910;2023-07-13T07:46:54;36.00;39.50
21171;DHT22;10743;52.160;20.910;2023-07-13T07:49:21;36.10;40.10
21171;DHT22;10743;52.160;20.910;2023-07-13T07:51:48;36.10;40.40
21171;DHT22;10743;52.160;20.910;2023-07-13T07:54:16;36.20;40.50
21171;DHT22;10743;52.160;20.910;2023-07-13T07:57:03;36.30;40.30
21171;DHT22;10743;52.160;20.910;2023-07-13T07:59:33;36.40;39.40
21171;DHT22;10743;52.160;20.910;2023-07-13T08:02:03;36.40;38.10
21171;DHT22;10743;52.160;20.910;2023-07-13T08:04:34;36.50;38.20
21171;DHT22;10743;52.160;20.910;2023-07-13T08:07:04;36.60;37.70
21171;DHT22;10743;52.160;20.910;2023-07-13T08:09:31;36.60;37.00
21171;DHT22;10743;52.160;20.910;2023-07-13T08:11:58;36.70;36.20
21171;DHT22;10743;52.160;20.910;2023-07-13T08:14:29;36.70;36.40
21171;DHT22;10743;52.160;20.910;2023-07-13T08:17:16;36.80;36.10
21171;DHT22;10743;52.160;20.910;2023-07-13T08:19:43;36.80;37.20
21171;DHT22;10743;52.160;20.910;2023-07-13T08:22:10;36.90;37.00
21171;DHT22;10743;52.160;20.910;2023-07-13T08:24:38;37.00;36.70
21171;DHT22;10743;52.160;20.910;2023-07-13T08:27:05;37.00;36.80
21171;DHT22;10743;52.160;20.910;2023-07-13T08:29:33;37.10;37.30
21171;DHT22;10743;52.160;20.910;2023-07-13T08:32:00;37.10;37.50
21171;DHT22;10743;52.160;20.910;2023-07-13T08:34:27;37.20;37.50
21171;DHT22;10743;52.160;20.910;2023-07-13T08:36:54;37.20;37.30
21171;DHT22;10743;52.160;20.910;2023-07-13T08:39:22;37.20;37.60
21171;DHT22;10743;52.160;20.910;2023-07-13T08:41:58;37.30;37.70
21171;DHT22;10743;52.160;20.910;2023-07-13T08:47:20;37.40;37.70
21171;DHT22;10743;52.160;20.910;2023-07-13T08:49:50;37.40;38.00
21171;DHT22;10743;52.160;20.910;2023-07-13T08:52:34;37.50;37.90
21171;DHT22;10743;52.160;20.910;2023-07-13T08:55:14;37.60;37.90
21171;DHT22;10743;52.160;20.910;2023-07-13T08:57:53;37.60;37.90
21171;DHT22;10743;52.160;20.910;2023-07-13T09:00:38;37.70;37.70
21171;DHT22;10743;52.160;20.910;2023-07-13T09:03:24;37.70;37.90
21171;DHT22;10743;52.160;20.910;2023-07-13T09:05:57;37.80;38.30
21171;DHT22;10743;52.160;20.910;2023-07-13T09:14:26;37.90;39.00
21171;DHT22;10743;52.160;20.910;2023-07-13T09:20:43;38.00;37.40
21171;DHT22;10743;52.160;20.910;2023-07-13T09:23:16;38.10;37.30
21171;DHT22;10743;52.160;20.910;2023-07-13T09:25:53;38.10;37.80
21171;DHT22;10743;52.160;20.910;2023-07-13T09:28:27;38.10;37.80
21171;DHT22;10743;52.160;20.910;2023-07-13T09:31:09;38.10;37.40
21171;DHT22;10743;52.160;20.910;2023-07-13T09:33:40;38.10;37.20
21171;DHT22;10743;52.160;20.910;2023-07-13T09:36:26;38.00;37.20
21171;DHT22;10743;52.160;20.910;2023-07-13T09:44:53;38.10;37.20
21171;DHT22;10743;52.160;20.910;2023-07-13T09:47:32;38.10;37.40
21171;DHT22;10743;52.160;20.910;2023-07-13T09:50:02;38.10;37.40
21171;DHT22;10743;52.160;20.910;2023-07-13T09:52:45;38.10;37.60
21171;DHT22;10743;52.160;20.910;2023-07-13T09:55:33;38.20;37.60
21171;DHT22;10743;52.160;20.910;2023-07-13T10:00:56;38.20;37.20
21171;DHT22;10743;52.160;20.910;2023-07-13T10:03:31;38.30;37.00
21171;DHT22;10743;52.160;20.910;2023-07-13T10:06:18;38.30;36.50
21171;DHT22;10743;52.160;20.910;2023-07-13T10:08:47;38.30;34.70
21171;DHT22;10743;52.160;20.910;2023-07-13T10:11:20;38.30;33.90
21171;DHT22;10743;52.160;20.910;2023-07-13T10:13:54;38.30;33.90
21171;DHT22;10743;52.160;20.910;2023-07-13T10:16:32;38.30;33.60
21171;DHT22;10743;52.160;20.910;2023-07-13T10:19:20;38.20;33.20
21171;DHT22;10743;52.160;20.910;2023-07-13T10:21:55;38.20;33.20
21171;DHT22;10743;52.160;20.910;2023-07-13T10:24:30;38.10;33.20
21171;DHT22;10743;52.160;20.910;2023-07-13T10:27:08;38.00;33.00
21171;DHT22;10743;52.160;20.910;2023-07-13T10:29:41;37.90;32.90
21171;DHT22;10743;52.160;20.910;2023-07-13T10:32:13;37.80;32.60
21171;DHT22;10743;52.160;20.910;2023-07-13T10:34:43;37.70;32.80
21171;DHT22;10743;52.160;20.910;2023-07-13T10:37:19;37.60;33.10
21171;DHT22;10743;52.160;20.910;2023-07-13T10:39:54;37.40;33.40
21171;DHT22;10743;52.160;20.910;2023-07-13T10:42:32;37.30;34.00
21171;DHT22;10743;52.160;20.910;2023-07-13T10:45:21;37.30;34.50
21171;DHT22;10743;52.160;20.910;2023-07-13T10:47:51;37.20;35.00
21171;DHT22;10743;52.160;20.910;2023-07-13T10:50:24;37.20;35.70
21171;DHT22;10743;52.160;20.910;2023-07-13T10:52:54;37.10;36.50
21171;DHT22;10743;52.160;20.910;2023-07-13T10:55:40;37.10;37.80
21171;DHT22;10743;52.160;20.910;2023-07-13T10:58:28;37.00;39.00
21171;DHT22;10743;52.160;20.910;2023-07-13T11:01:15;36.90;39.70
21171;DHT22;10743;52.160;20.910;2023-07-13T11:03:50;36.70;39.70
21171;DHT22;10743;52.160;20.910;2023-07-13T11:06:40;36.60;39.80
21171;DHT22;10743;52.160;20.910;2023-07-13T11:09:31;36.40;40.80
21171;DHT22;10743;52.160;20.910;2023-07-13T11:12:01;36.20;40.30
21171;DHT22;10743;52.160;20.910;2023-07-13T11:14:44;36.10;40.30
21171;DHT22;10743;52.160;20.910;2023-07-13T11:25:36;35.50;41.30
21171;DHT22;10743;52.160;20.910;2023-07-13T11:30:59;35.30;41.90
21171;DHT22;10743;52.160;20.910;2023-07-13T11:33:47;35.20;42.70
21171;DHT22;10743;52.160;20.910;2023-07-13T11:36:23;35.10;42.80
21171;DHT22;10743;52.160;20.910;2023-07-13T11:39:37;35.00;43.00
21171;DHT22;10743;52.160;20.910;2023-07-13T11:41:52;34.90;42.80
21171;DHT22;10743;52.160;20.910;2023-07-13T11:44:24;34.80;43.50
21171;DHT22;10743;52.160;20.910;2023-07-13T11:46:55;34.70;43.80
21171;DHT22;10743;52.160;20.910;2023-07-13T11:49:25;34.70;44.20
21171;DHT22;10743;52.160;20.910;2023-07-13T11:51:54;34.60;44.50
21171;DHT22;10743;52.160;20.910;2023-07-13T11:54:33;34.50;44.40
21171;DHT22;10743;52.160;20.910;2023-07-13T11:57:23;34.50;44.60
21171;DHT22;10743;52.160;20.910;2023-07-13T11:59:53;34.40;44.60
21171;DHT22;10743;52.160;20.910;2023-07-13T12:02:32;34.40;44.30
21171;DHT22;10743;52.160;20.910;2023-07-13T12:05:02;34.30;44.10
21171;DHT22;10743;52.160;20.910;2023-07-13T12:07:32;34.30;44.10
21171;DHT22;10743;52.160;20.910;2023-07-13T12:12:58;34.10;44.60
21171;DHT22;10743;52.160;20.910;2023-07-13T12:20:43;34.00;44.80
21171;DHT22;10743;52.160;20.910;2023-07-13T12:23:25;34.00;44.80
21171;DHT22;10743;52.160;20.910;2023-07-13T12:25:56;33.90;44.70
21171;DHT22;10743;52.160;20.910;2023-07-13T12:28:39;33.90;45.00
21171;DHT22;10743;52.160;20.910;2023-07-13T12:34:06;33.80;45.10
21171;DHT22;10743;52.160;20.910;2023-07-13T12:36:53;33.80;45.30
21171;DHT22;10743;52.160;20.910;2023-07-13T12:39:22;33.70;45.00
21171;DHT22;10743;52.160;20.910;2023-07-13T12:41:53;33.70;45.50
21171;DHT22;10743;52.160;20.910;2023-07-13T12:44:29;33.70;45.60
21171;DHT22;10743;52.160;20.910;2023-07-13T12:47:06;33.60;45.60
21171;DHT22;10743;52.160;20.910;2023-07-13T12:49:47;33.60;45.90
21171;DHT22;10743;52.160;20.910;2023-07-13T12:52:22;33.60;46.00
21171;DHT22;10743;52.160;20.910;2023-07-13T12:54:56;33.60;46.00
21171;DHT22;10743;52.160;20.910;2023-07-13T12:57:32;33.50;46.10
21171;DHT22;10743;52.160;20.910;2023-07-13T13:00:22;33.50;46.30
21171;DHT22;10743;52.160;20.910;2023-07-13T13:02:54;33.40;46.30
21171;DHT22;10743;52.160;20.910;2023-07-13T13:05:42;33.40;46.40
21171;DHT22;10743;52.160;20.910;2023-07-13T13:08:13;33.40;46.50
21171;DHT22;10743;52.160;20.910;2023-07-13T13:10:40;33.40;46.80
21171;DHT22;10743;52.160;20.910;2023-07-13T13:13:07;33.40;46.70
21171;DHT22;10743;52.160;20.910;2023-07-13T13:15:35;33.40;46.50
21171;DHT22;10743;52.160;20.910;2023-07-13T13:18:14;33.40;47.60
21171;DHT22;10743;52.160;20.910;2023-07-13T13:20:42;33.40;47.10
21171;DHT22;10743;52.160;20.910;2023-07-13T13:23:14;33.50;47.10
21171;DHT22;10743;52.160;20.910;2023-07-13T13:25:46;33.50;46.80
21171;DHT22;10743;52.160;20.910;2023-07-13T13:28:17;33.50;46.90
21171;DHT22;10743;52.160;20.910;2023-07-13T13:30:48;33.50;47.10
21171;DHT22;10743;52.160;20.910;2023-07-13T13:33:19;33.50;46.90
21171;DHT22;10743;52.160;20.910;2023-07-13T13:35:48;33.50;47.00
21171;DHT22;10743;52.160;20.910;2023-07-13T13:38:19;33.50;47.10
21171;DHT22;10743;52.160;20.910;2023-07-13T13:40:48;33.50;47.10
21171;DHT22;10743;52.160;20.910;2023-07-13T13:43:18;33.60;47.20
21171;DHT22;10743;52.160;20.910;2023-07-13T13:45:48;33.60;47.20
21171;DHT22;10743;52.160;20.910;2023-07-13T13:48:18;33.50;47.30
21171;DHT22;10743;52.160;20.910;2023-07-13T13:50:47;33.50;47.50
21171;DHT22;10743;52.160;20.910;2023-07-13T13:53:15;33.50;47.60
21171;DHT22;10743;52.160;20.910;2023-07-13T13:55:42;33.50;47.30
21171;DHT22;10743;52.160;20.910;2023-07-13T13:58:10;33.50;47.40
21171;DHT22;10743;52.160;20.910;2023-07-13T14:00:38;33.50;47.40
21171;DHT22;10743;52.160;20.910;2023-07-13T14:03:15;33.50;47.60
21171;DHT22;10743;52.160;20.910;2023-07-13T14:05:45;33.50;47.80
21171;DHT22;10743;52.160;20.910;2023-07-13T14:08:15;33.50;47.90
21171;DHT22;10743;52.160;20.910;2023-07-13T14:10:47;33.50;47.90
21171;DHT22;10743;52.160;20.910;2023-07-13T14:13:22;33.50;48.00
21171;DHT22;10743;52.160;20.910;2023-07-13T14:15:54;33.50;47.90
21171;DHT22;10743;52.160;20.910;2023-07-13T14:18:21;33.60;48.10
21171;DHT22;10743;52.160;20.910;2023-07-13T14:20:48;33.60;48.00
21171;DHT22;10743;52.160;20.910;2023-07-13T14:23:16;33.60;48.00
21171;DHT22;10743;52.160;20.910;2023-07-13T14:25:46;33.60;48.10
21171;DHT22;10743;52.160;20.910;2023-07-13T14:28:24;33.60;48.20
21171;DHT22;10743;52.160;20.910;2023-07-13T14:30:53;33.60;48.10
21171;DHT22;10743;52.160;20.910;2023-07-13T14:33:21;33.70;48.20
21171;DHT22;10743;52.160;20.910;2023-07-13T14:35:50;33.70;48.00
21171;DHT22;10743;52.160;20.910;2023-07-13T14:38:19;33.70;48.10
21171;DHT22;10743;52.160;20.910;2023-07-13T14:40:47;33.70;48.20
21171;DHT22;10743;52.160;20.910;2023-07-13T14:43:16;33.70;48.40
21171;DHT22;10743;52.160;20.910;2023-07-13T14:45:49;33.70;48.10
21171;DHT22;10743;52.160;20.910;2023-07-13T14:48:22;33.70;48.50
21171;DHT22;10743;52.160;20.910;2023-07-13T14:50:54;33.80;48.40
21171;DHT22;10743;52.160;20.910;2023-07-13T14:53:24;33.80;48.50
21171;DHT22;10743;52.160;20.910;2023-07-13T14:55:54;33.70;48.50
21171;DHT22;10743;52.160;20.910;2023-07-13T14:58:21;33.70;48.50
21171;DHT22;10743;52.160;20.910;2023-07-13T15:00:48;33.70;48.50
21171;DHT22;10743;52.160;20.910;2023-07-13T15:03:20;33.70;48.40
21171;DHT22;10743;52.160;20.910;2023-07-13T15:05:49;33.70;48.20
21171;DHT22;10743;52.160;20.910;2023-07-13T15:08:17;33.80;47.90
21171;DHT22;10743;52.160;20.910;2023-07-13T15:10:44;33.70;47.90
21171;DHT22;10743;52.160;20.910;2023-07-13T15:13:21;33.70;47.70
21171;DHT22;10743;52.160;20.910;2023-07-13T15:15:51;33.70;47.60
21171;DHT22;10743;52.160;20.910;2023-07-13T15:18:21;34.60;48.20
21171;DHT22;10743;52.160;20.910;2023-07-13T15:20:51;33.70;47.60
21171;DHT22;10743;52.160;20.910;2023-07-13T15:23:23;33.70;47.60
21171;DHT22;10743;52.160;20.910;2023-07-13T15:25:50;33.70;47.50
21171;DHT22;10743;52.160;20.910;2023-07-13T15:28:18;33.70;47.70
21171;DHT22;10743;52.160;20.910;2023-07-13T15:30:47;33.60;47.70
21171;DHT22;10743;52.160;20.910;2023-07-13T15:33:27;33.60;47.90
21171;DHT22;10743;52.160;20.910;2023-07-13T15:35:56;33.60;47.80
21171;DHT22;10743;52.160;20.910;2023-07-13T15:38:28;33.60;48.00
21171;DHT22;10743;52.160;20.910;2023-07-13T15:40:57;33.60;48.10
21171;DHT22;10743;52.160;20.910;2023-07-13T15:43:26;33.60;48.10
21171;DHT22;10743;52.160;20.910;2023-07-13T15:45:53;33.60;48.10
21171;DHT22;10743;52.160;20.910;2023-07-13T15:48:25;33.60;48.10
21171;DHT22;10743;52.160;20.910;2023-07-13T15:50:55;33.60;48.00
21171;DHT22;10743;52.160;20.910;2023-07-13T15:53:33;33.60;48.10
21171;DHT22;10743;52.160;20.910;2023-07-13T15:56:04;33.60;48.20
21171;DHT22;10743;52.160;20.910;2023-07-13T15:58:42;33.50;48.20
21171;DHT22;10743;52.160;20.910;2023-07-13T16:01:10;33.50;48.20
21171;DHT22;10743;52.160;20.910;2023-07-13T16:03:37;33.50;48.40
21171;DHT22;10743;52.160;20.910;2023-07-13T16:06:19;33.50;48.40
21171;DHT22;10743;52.160;20.910;2023-07-13T16:08:50;33.50;49.20
21171;DHT22;10743;52.160;20.910;2023-07-13T16:11:26;33.50;48.30
21171;DHT22;10743;52.160;20.910;2023-07-13T16:13:54;33.50;48.10
21171;DHT22;10743;52.160;20.910;2023-07-13T16:16:25;33.50;48.30
21171;DHT22;10743;52.160;20.910;2023-07-13T16:18:57;33.50;48.50
21171;DHT22;10743;52.160;20.910;2023-07-13T16:21:30;33.60;48.50
21171;DHT22;10743;52.160;20.910;2023-07-13T16:24:00;33.60;48.60